ASN logo
 
Statuts: Information is only available from news, social media or unofficial sources
Date:mercredi 13 juillet 2022
Heure:18:52
Type/Sous-type:Silhouette image of generic C208 model; specific model in this crash may look slightly different
Cessna 208B Super Cargomaster
Operated by:Corporate Air
On behalf of:FedEx
Immatriculation: N877FE
Numéro de série: 208B0232
Année de Fabrication: 1990
Moteurs: 1 Pratt & Whitney Canada PT6A-114A
Equipage:victimes: 0 / à bord: 1
Passagers:victimes: 0 / à bord: 0
Total:victimes: 0 / à bord: 1
Dégats de l'appareil: Substantiels
Lieu de l'accident:Salt Lake City International Airport, UT (SLC) (   Etats-Unis d'Amérique)
Phase de vol: A l'atterrissage (LDG)
Nature:Cargo
Aéroport de départ:Hailey-Friedman Memorial Airport, ID (SUN/KSUN), Etats-Unis d'Amérique
Aéroport de destination:Salt Lake City International Airport, UT (SLC/KSLC), Etats-Unis d'Amérique
Numéro de vol:CPT7727
Détails:
Corporate Air flight 7727, a Cessna 208B Super Cargomaster, suffered a runway excursion after landing on runway 34R at Salt Lake City International Airport, UT (SLC).
The FAA reported that the aircraft suffered substantial damage.

Sources:
» FAA
» www.abc4.com

METAR Weather report:
00:33 UTC / 18:33 local time:
KSLC 140033Z 34016G21KT 10SM TS FEW110CB SCT150 BKN240 37/08 A2995 RMK AO2 LTG DSNT SW TSB27 CB VC SW MOV NE T03720083

00:54 UTC / 18:54 local time:
KSLC 140054Z 30029G48KT 9SM -TSRA FEW018 FEW120 BKN140 BKN240 33/13 A2997 RMK AO2 PK WND 32048/0054 LTG DSNT SW RAB51 TSB27E42B50 SLP081 CB OHD MOV NE P0000 T03280128


Photos

Add your photo of this accident or aircraft

Plan
Ce plan montre l'aéroport de départ ainsi que la supposée destination du vol. La ligne fixe reliant les deux aéroports n'est pas le plan de vol exact.
La distance entre Hailey-Friedman Memorial Airport, ID et Salt Lake City International Airport, UT est de 355 km (222 miles).
Accident location: Exact; deduced from official accident report.

Les informations ci-dessus ne représentent pas l'opinion de la 'Flight Safety Foundation' ou de 'Aviation Safety Network' sur les causes de l'accident. Ces informations prélimimaires sont basées sur les faits tel qu'ils sont connus à ce jour.
languages: languages

Share

GAPPRE
GAPPRE
Global Action Plan for the Prevention of Runway Excursions (GAPPRE): recommendations and guidance material to prevent runway excursions

The Aviation Safety Network is an exclusive service provided by:
Quick Links:

CONNECT WITH US: FSF Facebook FSF Twitter FSF Youtube FSF LinkedIn FSF Instagram

©2022 Flight Safety Foundation

701 N. Fairfax St., Ste. 250
Alexandria, Virginia 22314
www.FlightSafety.org